createdAt,value
2022-07-25T00:02:01.449Z,18.00
2022-07-25T00:04:35.391Z,17.80
2022-07-25T00:07:08.819Z,17.80
2022-07-25T00:09:41.651Z,17.70
2022-07-25T00:12:16.517Z,17.70
2022-07-25T00:14:54.611Z,17.70
2022-07-25T00:17:29.848Z,17.60
2022-07-25T00:20:03.067Z,17.50
2022-07-25T00:22:40.144Z,17.50
2022-07-25T00:25:14.297Z,17.40
2022-07-25T00:27:48.833Z,17.40
2022-07-25T00:30:24.432Z,17.30
2022-07-25T00:32:57.419Z,17.40
2022-07-25T00:35:31.672Z,17.40
2022-07-25T00:38:07.145Z,17.40
2022-07-25T00:40:40.669Z,17.30
2022-07-25T00:43:17.113Z,17.30
2022-07-25T00:45:54.813Z,17.30
2022-07-25T00:48:30.829Z,17.20
2022-07-25T00:51:03.740Z,17.20
2022-07-25T00:53:38.300Z,17.20
2022-07-25T00:56:11.181Z,17.10
2022-07-25T00:58:47.516Z,17.10
2022-07-25T01:01:27.072Z,17.10
2022-07-25T01:04:00.733Z,17.10
2022-07-25T01:06:34.372Z,16.90
2022-07-25T01:09:10.053Z,17.00
2022-07-25T01:11:44.871Z,16.90
2022-07-25T01:14:17.762Z,16.90
2022-07-25T01:16:55.620Z,16.90
2022-07-25T01:19:31.031Z,16.80
2022-07-25T01:22:07.666Z,16.80
2022-07-25T01:24:42.713Z,16.60
2022-07-25T01:27:17.462Z,16.60
2022-07-25T01:29:49.809Z,16.70
2022-07-25T01:32:23.484Z,16.60
2022-07-25T01:34:58.052Z,16.60
2022-07-25T01:37:34.674Z,16.50
2022-07-25T01:40:10.962Z,16.50
2022-07-25T01:42:44.058Z,16.40
2022-07-25T01:45:16.622Z,16.30
2022-07-25T01:47:51.577Z,16.30
2022-07-25T01:50:25.807Z,16.20
2022-07-25T01:53:02.242Z,16.20
2022-07-25T01:55:37.273Z,16.10
2022-07-25T01:58:11.881Z,16.10
2022-07-25T02:00:47.149Z,16.10
2022-07-25T02:03:37.805Z,16.10
2022-07-25T02:06:11.248Z,16.00
2022-07-25T02:08:47.675Z,16.00
2022-07-25T02:11:21.087Z,16.00
2022-07-25T02:13:54.273Z,16.00
2022-07-25T02:16:28.810Z,16.00
2022-07-25T02:19:03.851Z,16.00
2022-07-25T02:21:38.856Z,16.00
2022-07-25T02:24:20.539Z,16.00
2022-07-25T02:26:55.893Z,16.00
2022-07-25T02:29:29.498Z,16.00
2022-07-25T02:32:03.627Z,15.90
2022-07-25T02:34:38.926Z,15.90
2022-07-25T02:37:14.487Z,15.90
2022-07-25T02:39:51.312Z,15.90
2022-07-25T02:42:26.127Z,15.70
2022-07-25T02:44:58.373Z,15.80
2022-07-25T02:47:30.379Z,15.70
2022-07-25T02:50:05.171Z,15.90
2022-07-25T02:52:38.626Z,15.70
2022-07-25T02:55:17.956Z,15.70
2022-07-25T02:57:50.490Z,15.70
2022-07-25T03:00:22.973Z,15.70
2022-07-25T03:02:55.422Z,15.70
2022-07-25T03:05:30.003Z,15.70
2022-07-25T03:08:05.515Z,15.70
2022-07-25T03:10:42.645Z,15.60
2022-07-25T03:13:15.039Z,15.50
2022-07-25T03:15:47.567Z,15.50
2022-07-25T03:18:23.384Z,15.50
2022-07-25T03:20:57.173Z,15.50
2022-07-25T03:23:31.188Z,15.40
2022-07-25T03:26:07.646Z,15.50
2022-07-25T03:28:41.990Z,15.40
2022-07-25T03:31:15.828Z,15.40
2022-07-25T03:33:49.155Z,15.40
2022-07-25T03:36:21.768Z,15.30
2022-07-25T03:38:56.896Z,15.40
2022-07-25T03:41:31.453Z,15.30
2022-07-25T03:44:06.826Z,15.40
2022-07-25T03:46:39.776Z,15.40
2022-07-25T03:49:14.112Z,15.50
2022-07-25T03:51:47.555Z,15.50
2022-07-25T03:54:22.516Z,15.70
2022-07-25T03:57:01.975Z,15.80
2022-07-25T03:59:37.259Z,16.00
2022-07-25T04:02:10.340Z,16.20
2022-07-25T04:04:45.535Z,16.40
2022-07-25T04:07:19.645Z,16.60
2022-07-25T04:09:56.906Z,16.80
2022-07-25T04:12:32.911Z,17.00
2022-07-25T04:15:07.945Z,17.20
2022-07-25T04:17:41.760Z,17.40
2022-07-25T04:20:16.385Z,17.60
2022-07-25T04:22:49.566Z,17.80
2022-07-25T04:25:24.240Z,17.80
2022-07-25T04:28:00.388Z,17.90
2022-07-25T04:30:32.146Z,18.10
2022-07-25T04:33:07.174Z,18.10
2022-07-25T04:35:41.930Z,18.20
2022-07-25T04:38:15.227Z,18.30
2022-07-25T04:40:47.660Z,18.50
2022-07-25T04:43:23.844Z,18.50
2022-07-25T04:45:58.893Z,18.70
2022-07-25T04:48:31.812Z,18.80
2022-07-25T04:51:05.427Z,19.00
2022-07-25T04:53:41.123Z,19.20
2022-07-25T04:56:15.096Z,19.40
2022-07-25T04:58:51.700Z,19.60
2022-07-25T05:01:27.605Z,19.90
2022-07-25T05:04:01.129Z,20.10
2022-07-25T05:06:34.127Z,20.40
2022-07-25T05:09:07.043Z,20.70
2022-07-25T05:11:46.975Z,20.90
2022-07-25T05:14:25.871Z,20.90
2022-07-25T05:16:59.319Z,21.00
2022-07-25T05:19:34.846Z,21.10
2022-07-25T05:22:08.132Z,21.30
2022-07-25T05:24:43.526Z,21.40
2022-07-25T05:27:22.717Z,21.40
2022-07-25T05:29:58.490Z,21.60
2022-07-25T05:32:31.429Z,21.70
2022-07-25T05:35:04.641Z,21.90
2022-07-25T05:37:43.982Z,21.90
2022-07-25T05:40:19.683Z,22.10
2022-07-25T05:42:53.816Z,22.20
2022-07-25T05:45:33.406Z,22.30
2022-07-25T05:48:08.289Z,22.50
2022-07-25T05:50:45.086Z,22.50
2022-07-25T05:53:18.041Z,22.60
2022-07-25T05:55:50.779Z,22.80
2022-07-25T05:58:29.438Z,23.00
2022-07-25T06:01:06.061Z,23.20
2022-07-25T06:03:37.834Z,23.20
2022-07-25T06:06:12.410Z,23.30
2022-07-25T06:08:45.469Z,23.30
2022-07-25T06:11:21.716Z,23.50
2022-07-25T06:13:58.695Z,23.70
2022-07-25T06:16:35.725Z,24.00
2022-07-25T06:19:08.032Z,24.30
2022-07-25T06:21:40.939Z,24.40
2022-07-25T06:24:14.269Z,24.60
2022-07-25T06:26:46.752Z,24.80
2022-07-25T06:29:20.847Z,24.90
2022-07-25T06:31:58.058Z,24.90
2022-07-25T06:34:31.480Z,25.20
2022-07-25T06:37:06.800Z,25.30
2022-07-25T06:39:45.847Z,25.50
2022-07-25T06:42:21.033Z,25.50
2022-07-25T06:44:58.070Z,25.60
2022-07-25T06:47:35.895Z,25.90
2022-07-25T06:50:11.475Z,26.10
2022-07-25T06:52:46.002Z,26.00
2022-07-25T06:55:20.784Z,26.20
2022-07-25T06:57:55.650Z,26.40
2022-07-25T07:00:30.960Z,26.50
2022-07-25T07:03:07.297Z,26.80
2022-07-25T07:05:41.133Z,26.90
2022-07-25T07:08:14.578Z,27.00
2022-07-25T07:10:48.178Z,27.10
2022-07-25T07:13:24.755Z,27.10
2022-07-25T07:15:59.024Z,27.30
2022-07-25T07:18:35.298Z,27.50
2022-07-25T07:21:10.287Z,27.80
2022-07-25T07:23:53.370Z,28.00
2022-07-25T07:26:26.476Z,28.20
2022-07-25T07:28:59.285Z,28.20
2022-07-25T07:31:36.776Z,28.20
2022-07-25T07:34:14.353Z,28.10
2022-07-25T07:36:49.451Z,28.20
2022-07-25T07:39:24.382Z,28.40
2022-07-25T07:41:56.979Z,28.60
2022-07-25T07:44:30.945Z,28.60
2022-07-25T07:47:05.320Z,28.60
2022-07-25T07:49:53.997Z,28.60
2022-07-25T07:52:39.824Z,28.60
2022-07-25T07:55:24.636Z,28.60
2022-07-25T07:57:59.810Z,28.70
2022-07-25T08:00:36.241Z,28.80
2022-07-25T08:03:10.529Z,28.80
2022-07-25T08:05:48.353Z,28.80
2022-07-25T08:08:21.372Z,28.90
2022-07-25T08:10:59.154Z,28.90
2022-07-25T08:13:34.245Z,29.10
2022-07-25T08:16:07.676Z,29.30
2022-07-25T08:18:45.520Z,29.60
2022-07-25T08:21:20.788Z,29.50
2022-07-25T08:24:16.211Z,29.60
2022-07-25T08:26:50.967Z,29.60
2022-07-25T08:29:28.025Z,29.80
2022-07-25T08:32:01.546Z,29.90
2022-07-25T08:34:39.195Z,30.00
2022-07-25T08:37:17.008Z,29.90
2022-07-25T08:39:50.750Z,29.90
2022-07-25T08:42:25.877Z,30.00
2022-07-25T08:45:00.779Z,30.00
2022-07-25T08:47:33.654Z,30.10
2022-07-25T08:50:09.734Z,30.20
2022-07-25T08:52:48.046Z,30.30
2022-07-25T08:55:24.618Z,30.40
2022-07-25T08:57:59.438Z,30.50
2022-07-25T09:00:35.094Z,30.60
2022-07-25T09:03:08.678Z,30.90
2022-07-25T09:05:44.125Z,31.00
2022-07-25T09:08:19.856Z,31.10
2022-07-25T09:10:54.665Z,31.10
2022-07-25T09:13:31.175Z,31.20
2022-07-25T09:16:05.951Z,31.30
2022-07-25T09:18:41.955Z,31.40
2022-07-25T09:21:17.859Z,31.40
2022-07-25T09:23:54.788Z,31.50
2022-07-25T09:26:29.635Z,31.50
2022-07-25T09:29:03.836Z,31.40
2022-07-25T09:31:40.995Z,31.60
2022-07-25T09:34:14.927Z,31.50
2022-07-25T09:36:56.177Z,31.60
2022-07-25T09:39:45.383Z,31.70
2022-07-25T09:42:23.472Z,31.70
2022-07-25T09:45:10.247Z,31.80
2022-07-25T09:47:53.249Z,31.80
2022-07-25T09:50:27.060Z,31.80
2022-07-25T09:53:02.787Z,31.80
2022-07-25T09:55:39.005Z,31.80
2022-07-25T09:58:12.138Z,32.00
2022-07-25T10:00:43.871Z,32.10
2022-07-25T10:03:24.139Z,32.30
2022-07-25T10:06:15.340Z,32.70
2022-07-25T10:08:48.840Z,32.80
2022-07-25T10:11:26.045Z,33.00
2022-07-25T10:13:59.489Z,33.10
2022-07-25T10:16:33.828Z,33.10
2022-07-25T10:19:11.286Z,33.10
2022-07-25T10:21:44.194Z,32.90
2022-07-25T10:24:18.621Z,32.80
2022-07-25T10:26:58.424Z,32.70
2022-07-25T10:29:36.955Z,32.60
2022-07-25T10:32:10.104Z,32.50
2022-07-25T10:34:43.390Z,32.50
2022-07-25T10:37:18.836Z,32.50
2022-07-25T10:39:53.225Z,32.60
2022-07-25T10:42:29.098Z,32.60
2022-07-25T10:45:02.260Z,32.70
2022-07-25T10:47:38.679Z,32.70
2022-07-25T10:50:25.680Z,32.70
2022-07-25T10:53:11.243Z,32.90
2022-07-25T10:56:04.839Z,32.70
2022-07-25T10:58:53.251Z,32.80
2022-07-25T11:01:25.023Z,32.90
2022-07-25T11:03:59.118Z,32.90
2022-07-25T11:06:38.619Z,33.00
2022-07-25T11:09:19.931Z,33.00
2022-07-25T11:11:56.886Z,32.90
2022-07-25T11:14:33.422Z,32.80
2022-07-25T11:17:17.356Z,32.80
2022-07-25T11:19:57.677Z,32.50
2022-07-25T11:22:32.972Z,32.40
2022-07-25T11:25:06.921Z,32.40
2022-07-25T11:27:42.181Z,32.40
2022-07-25T11:30:19.938Z,32.60
2022-07-25T11:32:53.664Z,32.70
2022-07-25T11:35:31.264Z,32.70
2022-07-25T11:38:04.805Z,32.90
2022-07-25T11:40:45.739Z,33.10
2022-07-25T11:43:23.938Z,33.10
2022-07-25T11:46:07.043Z,33.10
2022-07-25T11:48:41.186Z,33.30
2022-07-25T11:51:18.697Z,33.40
2022-07-25T11:53:55.671Z,33.40
2022-07-25T11:56:42.316Z,33.40
2022-07-25T11:59:19.751Z,33.20
2022-07-25T12:01:58.222Z,33.00
2022-07-25T12:04:32.309Z,32.80
2022-07-25T12:07:08.966Z,32.80
2022-07-25T12:09:44.415Z,32.80
2022-07-25T12:12:21.425Z,32.80
2022-07-25T12:14:53.309Z,32.60
2022-07-25T12:17:30.186Z,32.70
2022-07-25T12:20:04.831Z,32.70
2022-07-25T12:22:42.898Z,32.80
2022-07-25T12:25:18.141Z,32.70
2022-07-25T12:27:51.206Z,32.70
2022-07-25T12:30:25.877Z,32.70
2022-07-25T12:33:03.009Z,32.70
2022-07-25T12:35:37.646Z,32.60
2022-07-25T12:38:12.179Z,32.70
2022-07-25T12:40:46.848Z,32.60
2022-07-25T12:43:26.201Z,32.60
2022-07-25T12:46:00.019Z,32.70
2022-07-25T12:48:37.109Z,32.60
2022-07-25T12:51:11.434Z,32.80
2022-07-25T12:53:44.958Z,32.70
2022-07-25T12:56:21.337Z,32.70
2022-07-25T12:58:55.061Z,32.70
2022-07-25T13:01:28.181Z,32.60
2022-07-25T13:04:07.495Z,32.60
2022-07-25T13:06:43.129Z,32.60
2022-07-25T13:09:16.724Z,32.60
2022-07-25T13:11:51.394Z,32.50
2022-07-25T13:14:26.034Z,32.50
2022-07-25T13:16:59.372Z,32.60
2022-07-25T13:19:36.166Z,32.60
2022-07-25T13:22:09.835Z,32.70
2022-07-25T13:24:44.122Z,32.70
2022-07-25T13:27:17.621Z,32.70
2022-07-25T13:29:54.946Z,32.80
2022-07-25T13:32:28.974Z,32.70
2022-07-25T13:35:06.414Z,32.60
2022-07-25T13:37:41.122Z,32.60
2022-07-25T13:40:15.249Z,32.70
2022-07-25T13:42:49.103Z,32.70
2022-07-25T13:45:25.387Z,32.80
2022-07-25T13:48:26.724Z,32.80
2022-07-25T13:50:58.021Z,32.80
2022-07-25T13:53:31.278Z,32.80
2022-07-25T13:56:03.903Z,32.80
2022-07-25T13:58:38.449Z,32.80
2022-07-25T14:01:13.373Z,32.80
2022-07-25T14:03:50.685Z,32.80
2022-07-25T14:06:25.519Z,32.80
2022-07-25T14:09:00.376Z,32.80
2022-07-25T14:11:34.199Z,32.80
2022-07-25T14:14:07.281Z,32.80
2022-07-25T14:16:41.955Z,32.80
2022-07-25T14:19:14.615Z,32.80
2022-07-25T14:21:53.345Z,32.80
2022-07-25T14:24:27.043Z,32.70
2022-07-25T14:27:00.859Z,32.70
2022-07-25T14:29:34.950Z,32.60
2022-07-25T14:32:12.926Z,32.60
2022-07-25T14:34:47.962Z,32.60
2022-07-25T14:37:25.855Z,32.60
2022-07-25T14:39:59.924Z,32.60
2022-07-25T14:42:33.613Z,32.70
2022-07-25T14:45:09.930Z,32.60
2022-07-25T14:47:46.731Z,32.70
2022-07-25T14:50:21.860Z,32.70
2022-07-25T14:52:57.827Z,32.70
2022-07-25T14:55:32.866Z,32.70
2022-07-25T14:58:07.946Z,32.70
2022-07-25T15:00:43.333Z,32.70
2022-07-25T15:03:16.777Z,32.60
2022-07-25T15:05:51.780Z,32.60
2022-07-25T15:08:29.329Z,32.60
2022-07-25T15:11:03.219Z,32.60
2022-07-25T15:13:37.071Z,32.60
2022-07-25T15:16:12.700Z,32.60
2022-07-25T15:19:13.787Z,32.60
2022-07-25T15:21:42.422Z,32.60
2022-07-25T15:24:18.318Z,32.60
2022-07-25T15:26:51.456Z,32.60
2022-07-25T15:29:25.320Z,32.70
2022-07-25T15:32:01.501Z,32.70
2022-07-25T15:34:34.711Z,32.70
2022-07-25T15:37:09.805Z,32.80
2022-07-25T15:39:48.391Z,32.80
2022-07-25T15:42:24.469Z,32.80
2022-07-25T15:45:31.941Z,32.80
2022-07-25T15:48:01.909Z,32.80
2022-07-25T15:50:36.189Z,32.70
2022-07-25T15:53:11.398Z,32.60
2022-07-25T15:55:47.257Z,32.60
2022-07-25T15:58:20.561Z,32.60
2022-07-25T16:00:55.675Z,32.60
2022-07-25T16:03:30.031Z,32.60
2022-07-25T16:06:05.142Z,32.60
2022-07-25T16:08:39.057Z,32.60
2022-07-25T16:11:16.570Z,32.60
2022-07-25T16:13:49.198Z,32.50
2022-07-25T16:16:23.143Z,32.60
2022-07-25T16:18:56.644Z,32.50
2022-07-25T16:21:33.860Z,32.50
2022-07-25T16:24:13.708Z,32.40
2022-07-25T16:26:51.490Z,32.40
2022-07-25T16:29:26.519Z,32.40
2022-07-25T16:32:00.246Z,32.40
2022-07-25T16:34:34.164Z,32.40
2022-07-25T16:37:07.589Z,32.40
2022-07-25T16:39:40.812Z,32.30
2022-07-25T16:42:18.130Z,32.40
2022-07-25T16:44:52.296Z,32.30
2022-07-25T16:47:25.499Z,32.30
2022-07-25T16:49:58.186Z,32.30
2022-07-25T16:52:31.925Z,32.30
2022-07-25T16:55:09.556Z,32.30
2022-07-25T16:57:46.313Z,32.30
2022-07-25T17:00:21.221Z,32.30
2022-07-25T17:02:54.800Z,32.20
2022-07-25T17:05:29.301Z,32.20
2022-07-25T17:07:59.683Z,32.20
2022-07-25T17:10:34.671Z,32.20
2022-07-25T17:13:12.444Z,32.10
2022-07-25T17:15:45.750Z,32.10
2022-07-25T17:18:20.549Z,32.10
2022-07-25T17:20:53.436Z,32.10
2022-07-25T17:23:26.676Z,32.00
2022-07-25T17:26:05.578Z,32.00
2022-07-25T17:28:43.519Z,32.00
2022-07-25T17:31:16.368Z,31.90
2022-07-25T17:33:50.967Z,31.90
2022-07-25T17:36:24.467Z,31.90
2022-07-25T17:38:57.460Z,31.80
2022-07-25T17:41:30.744Z,31.90
2022-07-25T17:44:11.999Z,31.80
2022-07-25T17:46:45.755Z,31.80
2022-07-25T17:49:20.288Z,31.70
2022-07-25T17:51:53.817Z,31.70
2022-07-25T17:54:28.404Z,31.70
2022-07-25T17:57:02.209Z,31.60
2022-07-25T17:59:38.439Z,31.50
2022-07-25T18:02:14.206Z,31.40
2022-07-25T18:04:51.940Z,31.30
2022-07-25T18:07:27.249Z,31.20
2022-07-25T18:10:01.370Z,31.20
2022-07-25T18:12:34.579Z,31.00
2022-07-25T18:15:15.606Z,30.90
2022-07-25T18:17:48.183Z,30.80
2022-07-25T18:20:21.433Z,30.70
2022-07-25T18:22:53.608Z,30.70
2022-07-25T18:25:26.510Z,30.50
2022-07-25T18:27:59.112Z,30.40
2022-07-25T18:30:34.655Z,30.40
2022-07-25T18:33:10.559Z,30.30
2022-07-25T18:35:43.122Z,30.20
2022-07-25T18:38:16.815Z,30.10
2022-07-25T18:41:06.496Z,30.10
2022-07-25T18:43:45.138Z,30.00
2022-07-25T18:46:23.450Z,29.80
2022-07-25T18:48:56.365Z,29.80
2022-07-25T18:51:29.401Z,29.70
2022-07-25T18:54:01.887Z,29.60
2022-07-25T18:56:37.185Z,29.60
2022-07-25T18:59:11.240Z,29.50
2022-07-25T19:01:50.942Z,29.40
2022-07-25T19:04:26.268Z,29.30
2022-07-25T19:06:59.599Z,29.30
2022-07-25T19:09:34.895Z,29.10
2022-07-25T19:12:07.682Z,29.10
2022-07-25T19:14:44.172Z,29.00
2022-07-25T19:17:21.119Z,28.90
2022-07-25T19:19:54.534Z,28.80
2022-07-25T19:22:29.444Z,28.80
2022-07-25T19:25:06.181Z,28.70
2022-07-25T19:27:40.055Z,28.60
2022-07-25T19:30:17.452Z,28.60
2022-07-25T19:32:57.370Z,28.50
2022-07-25T19:35:34.549Z,28.30
2022-07-25T19:38:09.788Z,28.40
2022-07-25T19:40:45.219Z,28.30
2022-07-25T19:43:20.456Z,28.10
2022-07-25T19:45:54.266Z,28.10
2022-07-25T19:48:30.083Z,28.00
2022-07-25T19:51:09.117Z,28.00
2022-07-25T19:53:42.662Z,27.90
2022-07-25T19:56:18.228Z,27.80
2022-07-25T19:59:02.142Z,27.70
2022-07-25T20:01:35.925Z,27.60
2022-07-25T20:04:13.580Z,27.60
2022-07-25T20:06:46.615Z,27.40
2022-07-25T20:09:22.001Z,27.40
2022-07-25T20:11:59.956Z,27.40
2022-07-25T20:14:35.858Z,27.30
2022-07-25T20:17:11.089Z,27.30
2022-07-25T20:19:46.802Z,27.20
2022-07-25T20:22:20.503Z,27.10
2022-07-25T20:24:53.383Z,27.00
2022-07-25T20:27:26.051Z,26.90
2022-07-25T20:30:00.641Z,26.80
2022-07-25T20:32:35.019Z,26.70
2022-07-25T20:35:12.747Z,26.70
2022-07-25T20:37:47.339Z,26.70
2022-07-25T20:40:20.526Z,26.50
2022-07-25T20:42:53.107Z,26.50
2022-07-25T20:45:27.309Z,26.40
2022-07-25T20:47:59.897Z,26.30
2022-07-25T20:50:36.841Z,26.20
2022-07-25T20:53:11.322Z,26.10
2022-07-25T20:55:44.011Z,26.00
2022-07-25T20:58:18.065Z,26.00
2022-07-25T21:00:52.339Z,25.80
2022-07-25T21:03:24.342Z,25.80
2022-07-25T21:06:01.631Z,25.70
2022-07-25T21:08:34.117Z,25.60
2022-07-25T21:11:08.451Z,25.50
2022-07-25T21:13:41.897Z,25.40
2022-07-25T21:16:17.380Z,25.40
2022-07-25T21:18:56.292Z,25.30
2022-07-25T21:21:32.126Z,25.20
2022-07-25T21:24:06.725Z,25.10
2022-07-25T21:26:43.605Z,25.10
2022-07-25T21:29:18.595Z,24.90
2022-07-25T21:31:52.299Z,24.90
2022-07-25T21:34:28.083Z,24.80
2022-07-25T21:37:05.383Z,24.80
2022-07-25T21:39:38.295Z,24.70
2022-07-25T21:42:12.762Z,24.70
2022-07-25T21:44:48.674Z,24.60
2022-07-25T21:47:22.086Z,24.60
2022-07-25T21:50:07.844Z,24.50
2022-07-25T21:52:45.923Z,24.50
2022-07-25T21:55:21.242Z,24.40
2022-07-25T21:57:55.183Z,24.40
2022-07-25T22:00:32.513Z,24.30
2022-07-25T22:03:06.165Z,24.40
2022-07-25T22:05:39.617Z,24.30
2022-07-25T22:08:14.418Z,24.30
2022-07-25T22:10:47.847Z,24.20
2022-07-25T22:13:23.657Z,24.20
2022-07-25T22:15:56.984Z,24.20
2022-07-25T22:18:31.901Z,24.10
2022-07-25T22:21:07.429Z,24.10
2022-07-25T22:23:43.692Z,24.10
2022-07-25T22:26:15.627Z,24.10
2022-07-25T22:28:48.343Z,24.00
2022-07-25T22:31:21.676Z,24.00
2022-07-25T22:33:54.506Z,23.90
2022-07-25T22:36:26.468Z,23.90
2022-07-25T22:39:02.543Z,23.90
2022-07-25T22:41:35.563Z,23.80
2022-07-25T22:44:10.151Z,23.90
2022-07-25T22:46:43.901Z,23.80
2022-07-25T22:49:18.075Z,23.90
2022-07-25T22:51:56.841Z,23.70
2022-07-25T22:54:36.671Z,23.70
2022-07-25T22:57:09.132Z,23.80
2022-07-25T22:59:43.981Z,23.70
2022-07-25T23:02:19.892Z,23.60
2022-07-25T23:04:54.343Z,23.50
2022-07-25T23:07:26.943Z,23.40
2022-07-25T23:10:04.102Z,23.50
2022-07-25T23:12:38.697Z,23.40
2022-07-25T23:15:13.199Z,23.40
2022-07-25T23:17:46.964Z,23.40
2022-07-25T23:20:21.116Z,23.40
2022-07-25T23:22:57.197Z,23.40
2022-07-25T23:25:34.293Z,23.40
2022-07-25T23:28:09.485Z,23.30
2022-07-25T23:30:43.730Z,23.20
2022-07-25T23:33:24.486Z,23.20
2022-07-25T23:35:58.697Z,23.20
2022-07-25T23:38:31.393Z,23.10
2022-07-25T23:41:08.366Z,23.20
2022-07-25T23:43:59.200Z,23.20
2022-07-25T23:46:34.940Z,23.10
2022-07-25T23:49:10.172Z,23.10
2022-07-25T23:51:43.264Z,23.20
2022-07-25T23:54:18.558Z,23.10
2022-07-25T23:56:53.306Z,23.10
2022-07-25T23:59:26.389Z,23.20
